sensor_id;sensor_type;location;lat;lon;timestamp;P1;durP1;ratioP1;P2;durP2;ratioP2
42192;SDS011;52467;40.114;18.306;2023-02-28T00:01:12;55.08;;;6.55;;
42192;SDS011;52467;40.114;18.306;2023-02-28T00:03:40;49.75;;;7.95;;
42192;SDS011;52467;40.114;18.306;2023-02-28T00:06:08;54.75;;;7.50;;
42192;SDS011;52467;40.114;18.306;2023-02-28T00:08:37;44.95;;;7.05;;
42192;SDS011;52467;40.114;18.306;2023-02-28T00:11:06;50.20;;;6.90;;
42192;SDS011;52467;40.114;18.306;2023-02-28T00:13:40;41.05;;;7.20;;
42192;SDS011;52467;40.114;18.306;2023-02-28T00:16:10;40.90;;;6.45;;
42192;SDS011;52467;40.114;18.306;2023-02-28T00:18:40;46.38;;;6.75;;
42192;SDS011;52467;40.114;18.306;2023-02-28T00:21:08;44.85;;;6.45;;
42192;SDS011;52467;40.114;18.306;2023-02-28T00:23:35;54.90;;;6.93;;
42192;SDS011;52467;40.114;18.306;2023-02-28T00:26:03;55.00;;;6.80;;
42192;SDS011;52467;40.114;18.306;2023-02-28T00:28:31;48.60;;;7.05;;
42192;SDS011;52467;40.114;18.306;2023-02-28T00:30:58;39.15;;;6.15;;
42192;SDS011;52467;40.114;18.306;2023-02-28T00:33:28;51.92;;;6.43;;
42192;SDS011;52467;40.114;18.306;2023-02-28T00:36:05;47.58;;;6.38;;
42192;SDS011;52467;40.114;18.306;2023-02-28T00:38:38;41.28;;;5.68;;
42192;SDS011;52467;40.114;18.306;2023-02-28T00:41:06;52.75;;;7.03;;
42192;SDS011;52467;40.114;18.306;2023-02-28T00:43:34;48.35;;;6.53;;
42192;SDS011;52467;40.114;18.306;2023-02-28T00:46:04;41.35;;;6.82;;
42192;SDS011;52467;40.114;18.306;2023-02-28T00:48:32;57.45;;;6.55;;
42192;SDS011;52467;40.114;18.306;2023-02-28T00:50:59;62.00;;;7.45;;
42192;SDS011;52467;40.114;18.306;2023-02-28T00:53:27;55.50;;;6.63;;
42192;SDS011;52467;40.114;18.306;2023-02-28T00:55:56;50.83;;;7.13;;
42192;SDS011;52467;40.114;18.306;2023-02-28T00:58:25;59.95;;;7.63;;
42192;SDS011;52467;40.114;18.306;2023-02-28T01:00:52;50.30;;;6.97;;
42192;SDS011;52467;40.114;18.306;2023-02-28T01:03:20;49.58;;;6.47;;
42192;SDS011;52467;40.114;18.306;2023-02-28T01:05:49;64.50;;;7.32;;
42192;SDS011;52467;40.114;18.306;2023-02-28T01:08:16;51.25;;;7.30;;
42192;SDS011;52467;40.114;18.306;2023-02-28T01:10:44;46.72;;;7.68;;
42192;SDS011;52467;40.114;18.306;2023-02-28T01:13:11;52.17;;;7.45;;
42192;SDS011;52467;40.114;18.306;2023-02-28T01:15:43;58.70;;;7.80;;
42192;SDS011;52467;40.114;18.306;2023-02-28T01:18:13;51.13;;;7.13;;
42192;SDS011;52467;40.114;18.306;2023-02-28T01:20:40;45.53;;;6.85;;
42192;SDS011;52467;40.114;18.306;2023-02-28T01:23:08;53.45;;;6.47;;
42192;SDS011;52467;40.114;18.306;2023-02-28T01:25:36;51.70;;;6.78;;
42192;SDS011;52467;40.114;18.306;2023-02-28T01:28:04;40.70;;;5.83;;
42192;SDS011;52467;40.114;18.306;2023-02-28T01:30:33;49.38;;;7.28;;
42192;SDS011;52467;40.114;18.306;2023-02-28T01:33:00;57.83;;;7.43;;
42192;SDS011;52467;40.114;18.306;2023-02-28T01:35:27;47.60;;;6.53;;
42192;SDS011;52467;40.114;18.306;2023-02-28T01:37:55;55.67;;;7.28;;
42192;SDS011;52467;40.114;18.306;2023-02-28T01:40:29;61.30;;;7.45;;
42192;SDS011;52467;40.114;18.306;2023-02-28T01:42:57;53.03;;;7.65;;
42192;SDS011;52467;40.114;18.306;2023-02-28T01:45:26;54.67;;;7.57;;
42192;SDS011;52467;40.114;18.306;2023-02-28T01:48:02;54.05;;;7.55;;
42192;SDS011;52467;40.114;18.306;2023-02-28T01:50:34;56.05;;;8.50;;
42192;SDS011;52467;40.114;18.306;2023-02-28T01:53:04;49.95;;;7.45;;
42192;SDS011;52467;40.114;18.306;2023-02-28T01:55:34;52.90;;;7.90;;
42192;SDS011;52467;40.114;18.306;2023-02-28T01:58:04;41.55;;;6.65;;
42192;SDS011;52467;40.114;18.306;2023-02-28T02:00:35;50.80;;;7.38;;
42192;SDS011;52467;40.114;18.306;2023-02-28T02:03:08;40.35;;;5.63;;
42192;SDS011;52467;40.114;18.306;2023-02-28T02:05:39;50.67;;;6.07;;
42192;SDS011;52467;40.114;18.306;2023-02-28T02:08:11;60.22;;;8.02;;
42192;SDS011;52467;40.114;18.306;2023-02-28T02:10:52;49.67;;;6.15;;
42192;SDS011;52467;40.114;18.306;2023-02-28T02:16:35;47.73;;;6.20;;
42192;SDS011;52467;40.114;18.306;2023-02-28T02:19:22;57.95;;;7.22;;
42192;SDS011;52467;40.114;18.306;2023-02-28T02:30:14;46.15;;;6.47;;
42192;SDS011;52467;40.114;18.306;2023-02-28T02:42:00;68.97;;;6.70;;
42192;SDS011;52467;40.114;18.306;2023-02-28T02:44:38;43.13;;;5.95;;
42192;SDS011;52467;40.114;18.306;2023-02-28T02:47:11;42.83;;;5.93;;
42192;SDS011;52467;40.114;18.306;2023-02-28T02:49:42;42.13;;;5.80;;
42192;SDS011;52467;40.114;18.306;2023-02-28T02:52:14;46.38;;;6.50;;
42192;SDS011;52467;40.114;18.306;2023-02-28T02:54:44;55.60;;;7.38;;
42192;SDS011;52467;40.114;18.306;2023-02-28T02:57:50;48.47;;;6.47;;
42192;SDS011;52467;40.114;18.306;2023-02-28T03:00:12;49.72;;;5.78;;
42192;SDS011;52467;40.114;18.306;2023-02-28T03:02:42;62.95;;;7.00;;
42192;SDS011;52467;40.114;18.306;2023-02-28T03:05:15;45.40;;;6.00;;
42192;SDS011;52467;40.114;18.306;2023-02-28T03:07:47;56.78;;;5.97;;
42192;SDS011;52467;40.114;18.306;2023-02-28T03:21:43;58.88;;;6.65;;
42192;SDS011;52467;40.114;18.306;2023-02-28T03:24:27;49.33;;;6.45;;
42192;SDS011;52467;40.114;18.306;2023-02-28T03:27:04;67.47;;;6.97;;
42192;SDS011;52467;40.114;18.306;2023-02-28T03:29:41;58.70;;;8.02;;
42192;SDS011;52467;40.114;18.306;2023-02-28T03:32:15;59.30;;;7.13;;
42192;SDS011;52467;40.114;18.306;2023-02-28T03:37:52;63.10;;;6.18;;
42192;SDS011;52467;40.114;18.306;2023-02-28T03:40:25;62.55;;;6.75;;
42192;SDS011;52467;40.114;18.306;2023-02-28T03:42:56;62.20;;;6.95;;
42192;SDS011;52467;40.114;18.306;2023-02-28T03:45:28;61.40;;;6.45;;
42192;SDS011;52467;40.114;18.306;2023-02-28T03:47:58;73.95;;;6.90;;
42192;SDS011;52467;40.114;18.306;2023-02-28T03:50:37;60.85;;;5.93;;
42192;SDS011;52467;40.114;18.306;2023-02-28T03:56:19;65.53;;;6.65;;
42192;SDS011;52467;40.114;18.306;2023-02-28T03:58:55;57.83;;;5.65;;
42192;SDS011;52467;40.114;18.306;2023-02-28T04:01:27;59.67;;;6.80;;
42192;SDS011;52467;40.114;18.306;2023-02-28T04:03:57;61.13;;;7.95;;
42192;SDS011;52467;40.114;18.306;2023-02-28T04:06:25;43.85;;;5.53;;
42192;SDS011;52467;40.114;18.306;2023-02-28T04:08:52;67.13;;;7.47;;
42192;SDS011;52467;40.114;18.306;2023-02-28T04:13:55;59.10;;;6.40;;
42192;SDS011;52467;40.114;18.306;2023-02-28T04:16:22;51.42;;;6.38;;
42192;SDS011;52467;40.114;18.306;2023-02-28T04:19:00;46.47;;;5.57;;
42192;SDS011;52467;40.114;18.306;2023-02-28T04:21:32;53.00;;;6.15;;
42192;SDS011;52467;40.114;18.306;2023-02-28T04:24:08;66.40;;;6.38;;
42192;SDS011;52467;40.114;18.306;2023-02-28T04:26:42;57.40;;;5.63;;
42192;SDS011;52467;40.114;18.306;2023-02-28T04:29:13;61.47;;;6.18;;
42192;SDS011;52467;40.114;18.306;2023-02-28T04:31:44;44.90;;;6.28;;
42192;SDS011;52467;40.114;18.306;2023-02-28T04:34:12;72.50;;;6.28;;
42192;SDS011;52467;40.114;18.306;2023-02-28T04:36:39;54.45;;;5.18;;
42192;SDS011;52467;40.114;18.306;2023-02-28T04:39:06;38.05;;;5.80;;
42192;SDS011;52467;40.114;18.306;2023-02-28T04:41:34;45.72;;;5.25;;
42192;SDS011;52467;40.114;18.306;2023-02-28T04:44:01;49.13;;;4.80;;
42192;SDS011;52467;40.114;18.306;2023-02-28T04:46:29;46.58;;;5.50;;
42192;SDS011;52467;40.114;18.306;2023-02-28T04:48:57;48.20;;;4.78;;
42192;SDS011;52467;40.114;18.306;2023-02-28T04:51:24;56.67;;;5.13;;
42192;SDS011;52467;40.114;18.306;2023-02-28T04:53:52;49.33;;;4.73;;
42192;SDS011;52467;40.114;18.306;2023-02-28T04:56:19;43.55;;;5.82;;
42192;SDS011;52467;40.114;18.306;2023-02-28T04:58:46;45.35;;;4.70;;
42192;SDS011;52467;40.114;18.306;2023-02-28T05:01:33;50.55;;;5.13;;
42192;SDS011;52467;40.114;18.306;2023-02-28T05:04:03;44.50;;;5.05;;
42192;SDS011;52467;40.114;18.306;2023-02-28T05:06:31;47.93;;;5.27;;
42192;SDS011;52467;40.114;18.306;2023-02-28T05:08:59;48.38;;;7.68;;
42192;SDS011;52467;40.114;18.306;2023-02-28T05:11:29;50.43;;;5.97;;
42192;SDS011;52467;40.114;18.306;2023-02-28T05:14:02;46.80;;;5.82;;
42192;SDS011;52467;40.114;18.306;2023-02-28T05:16:33;46.47;;;5.25;;
42192;SDS011;52467;40.114;18.306;2023-02-28T05:19:00;51.63;;;5.18;;
42192;SDS011;52467;40.114;18.306;2023-02-28T05:21:29;47.83;;;5.65;;
42192;SDS011;52467;40.114;18.306;2023-02-28T05:24:05;40.65;;;5.28;;
42192;SDS011;52467;40.114;18.306;2023-02-28T05:26:40;40.03;;;4.93;;
42192;SDS011;52467;40.114;18.306;2023-02-28T05:29:08;49.35;;;5.20;;
42192;SDS011;52467;40.114;18.306;2023-02-28T05:31:36;43.65;;;4.03;;
42192;SDS011;52467;40.114;18.306;2023-02-28T05:34:03;49.25;;;5.07;;
42192;SDS011;52467;40.114;18.306;2023-02-28T05:36:31;38.17;;;5.53;;
42192;SDS011;52467;40.114;18.306;2023-02-28T05:38:59;40.47;;;4.77;;
42192;SDS011;52467;40.114;18.306;2023-02-28T05:41:26;43.28;;;4.43;;
42192;SDS011;52467;40.114;18.306;2023-02-28T05:43:54;43.85;;;5.28;;
42192;SDS011;52467;40.114;18.306;2023-02-28T05:46:21;40.80;;;4.63;;
42192;SDS011;52467;40.114;18.306;2023-02-28T05:48:49;46.17;;;4.90;;
42192;SDS011;52467;40.114;18.306;2023-02-28T05:51:17;39.15;;;4.57;;
42192;SDS011;52467;40.114;18.306;2023-02-28T05:53:44;45.97;;;6.07;;
42192;SDS011;52467;40.114;18.306;2023-02-28T05:56:12;43.72;;;5.07;;
42192;SDS011;52467;40.114;18.306;2023-02-28T05:58:39;42.53;;;5.40;;
42192;SDS011;52467;40.114;18.306;2023-02-28T06:01:20;42.87;;;5.27;;
42192;SDS011;52467;40.114;18.306;2023-02-28T06:03:59;38.50;;;4.35;;
42192;SDS011;52467;40.114;18.306;2023-02-28T06:06:28;43.05;;;4.57;;
42192;SDS011;52467;40.114;18.306;2023-02-28T06:08:56;37.05;;;4.55;;
42192;SDS011;52467;40.114;18.306;2023-02-28T06:11:23;48.75;;;4.90;;
42192;SDS011;52467;40.114;18.306;2023-02-28T06:13:55;36.10;;;5.25;;
42192;SDS011;52467;40.114;18.306;2023-02-28T06:16:23;44.07;;;4.37;;
42192;SDS011;52467;40.114;18.306;2023-02-28T06:18:51;46.17;;;4.47;;
42192;SDS011;52467;40.114;18.306;2023-02-28T06:21:19;42.90;;;6.20;;
42192;SDS011;52467;40.114;18.306;2023-02-28T06:23:46;47.07;;;5.57;;
42192;SDS011;52467;40.114;18.306;2023-02-28T06:26:14;46.53;;;6.15;;
42192;SDS011;52467;40.114;18.306;2023-02-28T06:28:41;32.58;;;4.70;;
42192;SDS011;52467;40.114;18.306;2023-02-28T06:31:09;42.95;;;5.93;;
42192;SDS011;52467;40.114;18.306;2023-02-28T06:33:38;42.67;;;5.03;;
42192;SDS011;52467;40.114;18.306;2023-02-28T06:36:06;39.80;;;4.65;;
42192;SDS011;52467;40.114;18.306;2023-02-28T06:38:34;39.22;;;5.53;;
42192;SDS011;52467;40.114;18.306;2023-02-28T06:41:01;40.78;;;5.07;;
42192;SDS011;52467;40.114;18.306;2023-02-28T06:43:30;47.33;;;5.15;;
42192;SDS011;52467;40.114;18.306;2023-02-28T06:46:02;47.22;;;5.25;;
42192;SDS011;52467;40.114;18.306;2023-02-28T06:48:30;53.40;;;5.35;;
42192;SDS011;52467;40.114;18.306;2023-02-28T06:51:07;33.03;;;4.43;;
42192;SDS011;52467;40.114;18.306;2023-02-28T06:53:40;34.73;;;4.93;;
42192;SDS011;52467;40.114;18.306;2023-02-28T06:56:09;40.40;;;4.88;;
42192;SDS011;52467;40.114;18.306;2023-02-28T06:58:38;36.45;;;4.78;;
42192;SDS011;52467;40.114;18.306;2023-02-28T07:01:07;47.40;;;5.80;;
42192;SDS011;52467;40.114;18.306;2023-02-28T07:06:12;51.80;;;5.47;;
42192;SDS011;52467;40.114;18.306;2023-02-28T07:08:39;48.25;;;5.32;;
42192;SDS011;52467;40.114;18.306;2023-02-28T07:11:07;42.13;;;5.63;;
42192;SDS011;52467;40.114;18.306;2023-02-28T07:13:35;39.58;;;4.78;;
42192;SDS011;52467;40.114;18.306;2023-02-28T07:16:04;45.50;;;4.95;;
42192;SDS011;52467;40.114;18.306;2023-02-28T07:18:32;40.13;;;5.18;;
42192;SDS011;52467;40.114;18.306;2023-02-28T07:21:04;45.75;;;6.63;;
42192;SDS011;52467;40.114;18.306;2023-02-28T07:23:33;43.75;;;4.78;;
42192;SDS011;52467;40.114;18.306;2023-02-28T07:26:00;53.35;;;5.25;;
42192;SDS011;52467;40.114;18.306;2023-02-28T07:28:28;47.85;;;5.78;;
42192;SDS011;52467;40.114;18.306;2023-02-28T07:30:55;40.28;;;4.28;;
42192;SDS011;52467;40.114;18.306;2023-02-28T07:33:22;49.65;;;4.90;;
42192;SDS011;52467;40.114;18.306;2023-02-28T07:35:50;44.47;;;4.95;;
42192;SDS011;52467;40.114;18.306;2023-02-28T07:38:17;46.72;;;5.07;;
42192;SDS011;52467;40.114;18.306;2023-02-28T07:40:46;36.90;;;3.90;;
42192;SDS011;52467;40.114;18.306;2023-02-28T07:43:13;34.58;;;4.20;;
42192;SDS011;52467;40.114;18.306;2023-02-28T07:45:40;32.00;;;4.25;;
42192;SDS011;52467;40.114;18.306;2023-02-28T07:48:08;30.85;;;4.78;;
42192;SDS011;52467;40.114;18.306;2023-02-28T07:50:36;38.03;;;4.45;;
42192;SDS011;52467;40.114;18.306;2023-02-28T07:53:04;41.28;;;4.97;;
42192;SDS011;52467;40.114;18.306;2023-02-28T07:55:31;38.03;;;5.28;;
42192;SDS011;52467;40.114;18.306;2023-02-28T07:57:58;32.10;;;4.78;;
42192;SDS011;52467;40.114;18.306;2023-02-28T08:00:26;26.97;;;3.50;;
42192;SDS011;52467;40.114;18.306;2023-02-28T08:02:53;30.15;;;3.53;;
42192;SDS011;52467;40.114;18.306;2023-02-28T08:05:21;32.17;;;4.25;;
42192;SDS011;52467;40.114;18.306;2023-02-28T08:07:49;25.60;;;3.47;;
42192;SDS011;52467;40.114;18.306;2023-02-28T08:10:16;36.28;;;3.65;;
42192;SDS011;52467;40.114;18.306;2023-02-28T08:12:44;37.08;;;3.95;;
42192;SDS011;52467;40.114;18.306;2023-02-28T08:15:11;30.80;;;4.13;;
42192;SDS011;52467;40.114;18.306;2023-02-28T08:17:38;28.83;;;4.35;;
42192;SDS011;52467;40.114;18.306;2023-02-28T08:20:06;29.60;;;4.53;;
42192;SDS011;52467;40.114;18.306;2023-02-28T08:22:35;36.50;;;4.60;;
42192;SDS011;52467;40.114;18.306;2023-02-28T08:25:23;35.38;;;4.78;;
42192;SDS011;52467;40.114;18.306;2023-02-28T08:27:51;36.45;;;4.00;;
42192;SDS011;52467;40.114;18.306;2023-02-28T08:30:19;39.60;;;4.55;;
42192;SDS011;52467;40.114;18.306;2023-02-28T08:32:46;38.63;;;4.70;;
42192;SDS011;52467;40.114;18.306;2023-02-28T08:35:14;36.83;;;5.03;;
42192;SDS011;52467;40.114;18.306;2023-02-28T08:37:41;39.90;;;5.25;;
42192;SDS011;52467;40.114;18.306;2023-02-28T08:40:08;43.63;;;5.43;;
42192;SDS011;52467;40.114;18.306;2023-02-28T08:42:36;35.03;;;4.70;;
42192;SDS011;52467;40.114;18.306;2023-02-28T08:45:04;35.97;;;4.20;;
42192;SDS011;52467;40.114;18.306;2023-02-28T08:47:31;33.10;;;4.47;;
42192;SDS011;52467;40.114;18.306;2023-02-28T08:49:59;35.38;;;4.30;;
42192;SDS011;52467;40.114;18.306;2023-02-28T08:52:26;41.00;;;4.85;;
42192;SDS011;52467;40.114;18.306;2023-02-28T08:54:53;37.33;;;4.43;;
42192;SDS011;52467;40.114;18.306;2023-02-28T08:57:21;32.22;;;5.03;;
42192;SDS011;52467;40.114;18.306;2023-02-28T08:59:48;48.80;;;4.97;;
42192;SDS011;52467;40.114;18.306;2023-02-28T09:02:15;37.63;;;4.95;;
42192;SDS011;52467;40.114;18.306;2023-02-28T09:04:43;42.67;;;4.40;;
42192;SDS011;52467;40.114;18.306;2023-02-28T09:07:12;46.83;;;6.03;;
42192;SDS011;52467;40.114;18.306;2023-02-28T09:09:40;44.03;;;5.37;;
42192;SDS011;52467;40.114;18.306;2023-02-28T09:12:21;33.28;;;4.47;;
42192;SDS011;52467;40.114;18.306;2023-02-28T09:14:49;39.20;;;4.50;;
42192;SDS011;52467;40.114;18.306;2023-02-28T09:17:16;44.83;;;5.40;;
42192;SDS011;52467;40.114;18.306;2023-02-28T09:19:43;31.83;;;4.18;;
42192;SDS011;52467;40.114;18.306;2023-02-28T09:22:11;42.85;;;5.25;;
42192;SDS011;52467;40.114;18.306;2023-02-28T09:24:38;37.08;;;4.72;;
42192;SDS011;52467;40.114;18.306;2023-02-28T09:27:11;29.80;;;4.25;;
42192;SDS011;52467;40.114;18.306;2023-02-28T09:29:38;39.55;;;5.45;;
42192;SDS011;52467;40.114;18.306;2023-02-28T09:32:05;51.08;;;5.93;;
42192;SDS011;52467;40.114;18.306;2023-02-28T09:34:34;37.57;;;5.03;;
42192;SDS011;52467;40.114;18.306;2023-02-28T09:37:03;43.65;;;4.78;;
42192;SDS011;52467;40.114;18.306;2023-02-28T09:39:30;39.63;;;5.50;;
42192;SDS011;52467;40.114;18.306;2023-02-28T09:41:58;33.75;;;5.45;;
42192;SDS011;52467;40.114;18.306;2023-02-28T09:44:34;38.10;;;5.00;;
42192;SDS011;52467;40.114;18.306;2023-02-28T09:47:05;46.22;;;5.80;;
42192;SDS011;52467;40.114;18.306;2023-02-28T09:49:41;46.63;;;5.32;;
42192;SDS011;52467;40.114;18.306;2023-02-28T09:52:17;45.78;;;5.40;;
42192;SDS011;52467;40.114;18.306;2023-02-28T09:54:46;47.25;;;5.53;;
42192;SDS011;52467;40.114;18.306;2023-02-28T10:08:30;38.67;;;5.10;;
42192;SDS011;52467;40.114;18.306;2023-02-28T10:11:09;47.33;;;5.38;;
42192;SDS011;52467;40.114;18.306;2023-02-28T10:16:18;47.13;;;5.30;;
42192;SDS011;52467;40.114;18.306;2023-02-28T10:19:16;44.28;;;4.63;;
42192;SDS011;52467;40.114;18.306;2023-02-28T10:21:58;37.88;;;4.78;;
42192;SDS011;52467;40.114;18.306;2023-02-28T10:24:41;36.88;;;4.38;;
42192;SDS011;52467;40.114;18.306;2023-02-28T10:27:20;33.17;;;4.55;;
42192;SDS011;52467;40.114;18.306;2023-02-28T10:29:49;35.13;;;5.13;;
42192;SDS011;52467;40.114;18.306;2023-02-28T10:32:18;43.10;;;4.85;;
42192;SDS011;52467;40.114;18.306;2023-02-28T10:34:53;37.30;;;4.72;;
42192;SDS011;52467;40.114;18.306;2023-02-28T10:37:26;37.55;;;4.95;;
42192;SDS011;52467;40.114;18.306;2023-02-28T10:39:54;34.03;;;4.60;;
42192;SDS011;52467;40.114;18.306;2023-02-28T10:42:26;31.08;;;4.97;;
42192;SDS011;52467;40.114;18.306;2023-02-28T10:48:00;50.45;;;5.78;;
42192;SDS011;52467;40.114;18.306;2023-02-28T11:03:54;38.13;;;4.65;;
42192;SDS011;52467;40.114;18.306;2023-02-28T11:06:22;48.05;;;5.25;;
42192;SDS011;52467;40.114;18.306;2023-02-28T11:08:53;38.17;;;4.57;;
42192;SDS011;52467;40.114;18.306;2023-02-28T11:11:22;26.35;;;4.38;;
42192;SDS011;52467;40.114;18.306;2023-02-28T11:14:02;40.00;;;4.35;;
42192;SDS011;52467;40.114;18.306;2023-02-28T11:16:32;36.58;;;4.43;;
42192;SDS011;52467;40.114;18.306;2023-02-28T11:19:01;37.20;;;4.65;;
42192;SDS011;52467;40.114;18.306;2023-02-28T11:21:31;28.23;;;4.43;;
42192;SDS011;52467;40.114;18.306;2023-02-28T11:26:43;38.45;;;4.68;;
42192;SDS011;52467;40.114;18.306;2023-02-28T11:29:15;26.23;;;4.20;;
42192;SDS011;52467;40.114;18.306;2023-02-28T11:34:45;39.22;;;4.65;;
42192;SDS011;52467;40.114;18.306;2023-02-28T11:37:20;27.38;;;4.53;;
42192;SDS011;52467;40.114;18.306;2023-02-28T11:39:47;27.58;;;4.78;;
42192;SDS011;52467;40.114;18.306;2023-02-28T11:50:31;23.70;;;4.03;;
42192;SDS011;52467;40.114;18.306;2023-02-28T11:56:01;27.02;;;3.97;;
42192;SDS011;52467;40.114;18.306;2023-02-28T12:04:25;25.27;;;4.57;;
42192;SDS011;52467;40.114;18.306;2023-02-28T12:26:02;33.67;;;4.15;;
42192;SDS011;52467;40.114;18.306;2023-02-28T12:28:38;33.17;;;4.83;;
42192;SDS011;52467;40.114;18.306;2023-02-28T12:33:45;36.80;;;4.60;;
42192;SDS011;52467;40.114;18.306;2023-02-28T12:36:16;25.90;;;4.63;;
42192;SDS011;52467;40.114;18.306;2023-02-28T12:38:59;29.00;;;4.75;;
42192;SDS011;52467;40.114;18.306;2023-02-28T12:41:39;32.92;;;4.93;;
42192;SDS011;52467;40.114;18.306;2023-02-28T12:44:13;27.05;;;5.55;;
42192;SDS011;52467;40.114;18.306;2023-02-28T12:46:45;27.52;;;4.10;;
42192;SDS011;52467;40.114;18.306;2023-02-28T12:49:17;27.10;;;4.40;;
42192;SDS011;52467;40.114;18.306;2023-02-28T12:51:57;36.10;;;4.00;;
42192;SDS011;52467;40.114;18.306;2023-02-28T13:00:16;30.25;;;4.75;;
42192;SDS011;52467;40.114;18.306;2023-02-28T13:10:48;30.90;;;3.80;;
42192;SDS011;52467;40.114;18.306;2023-02-28T13:13:24;30.88;;;4.20;;
42192;SDS011;52467;40.114;18.306;2023-02-28T13:16:08;28.52;;;4.47;;
42192;SDS011;52467;40.114;18.306;2023-02-28T13:18:37;38.95;;;4.95;;
42192;SDS011;52467;40.114;18.306;2023-02-28T13:21:22;33.37;;;4.00;;
42192;SDS011;52467;40.114;18.306;2023-02-28T13:23:58;30.63;;;3.97;;
42192;SDS011;52467;40.114;18.306;2023-02-28T13:28:59;37.03;;;5.32;;
42192;SDS011;52467;40.114;18.306;2023-02-28T13:31:28;31.03;;;4.33;;
42192;SDS011;52467;40.114;18.306;2023-02-28T13:36:27;32.83;;;4.60;;
42192;SDS011;52467;40.114;18.306;2023-02-28T13:38:58;27.75;;;4.20;;
42192;SDS011;52467;40.114;18.306;2023-02-28T13:49:31;33.63;;;5.15;;
42192;SDS011;52467;40.114;18.306;2023-02-28T13:57:35;34.25;;;4.10;;
42192;SDS011;52467;40.114;18.306;2023-02-28T14:08:55;31.15;;;5.22;;
42192;SDS011;52467;40.114;18.306;2023-02-28T14:11:32;37.60;;;4.93;;
42192;SDS011;52467;40.114;18.306;2023-02-28T14:14:01;34.10;;;4.35;;
42192;SDS011;52467;40.114;18.306;2023-02-28T14:16:39;28.05;;;4.20;;
42192;SDS011;52467;40.114;18.306;2023-02-28T14:19:11;35.03;;;4.90;;
42192;SDS011;52467;40.114;18.306;2023-02-28T14:21:47;30.85;;;5.13;;
42192;SDS011;52467;40.114;18.306;2023-02-28T14:24:25;39.23;;;4.77;;
42192;SDS011;52467;40.114;18.306;2023-02-28T14:34:48;38.58;;;4.65;;
42192;SDS011;52467;40.114;18.306;2023-02-28T14:37:43;47.35;;;5.03;;
42192;SDS011;52467;40.114;18.306;2023-02-28T14:40:27;38.88;;;4.70;;
42192;SDS011;52467;40.114;18.306;2023-02-28T14:42:55;42.47;;;5.15;;
42192;SDS011;52467;40.114;18.306;2023-02-28T14:45:27;40.90;;;4.83;;
42192;SDS011;52467;40.114;18.306;2023-02-28T14:47:59;34.85;;;4.65;;
42192;SDS011;52467;40.114;18.306;2023-02-28T14:50:34;42.83;;;5.03;;
42192;SDS011;52467;40.114;18.306;2023-02-28T14:53:03;45.13;;;5.30;;
42192;SDS011;52467;40.114;18.306;2023-02-28T14:55:34;32.97;;;4.32;;
42192;SDS011;52467;40.114;18.306;2023-02-28T14:58:03;20.90;;;4.05;;
42192;SDS011;52467;40.114;18.306;2023-02-28T15:00:34;40.50;;;5.63;;
42192;SDS011;52467;40.114;18.306;2023-02-28T15:06:06;39.43;;;4.50;;
42192;SDS011;52467;40.114;18.306;2023-02-28T15:08:39;33.78;;;5.55;;
42192;SDS011;52467;40.114;18.306;2023-02-28T15:11:07;38.83;;;4.47;;
42192;SDS011;52467;40.114;18.306;2023-02-28T15:13:39;39.83;;;4.45;;
42192;SDS011;52467;40.114;18.306;2023-02-28T15:18:54;45.95;;;5.85;;
42192;SDS011;52467;40.114;18.306;2023-02-28T15:21:22;38.85;;;5.53;;
42192;SDS011;52467;40.114;18.306;2023-02-28T15:23:56;29.95;;;4.72;;
42192;SDS011;52467;40.114;18.306;2023-02-28T15:26:26;38.78;;;4.45;;
42192;SDS011;52467;40.114;18.306;2023-02-28T15:29:06;39.08;;;6.00;;
42192;SDS011;52467;40.114;18.306;2023-02-28T15:31:40;45.17;;;5.70;;
42192;SDS011;52467;40.114;18.306;2023-02-28T15:34:43;34.65;;;4.70;;
42192;SDS011;52467;40.114;18.306;2023-02-28T15:48:35;42.33;;;5.00;;
42192;SDS011;52467;40.114;18.306;2023-02-28T15:51:08;31.73;;;5.32;;
42192;SDS011;52467;40.114;18.306;2023-02-28T15:58:53;34.00;;;5.27;;
42192;SDS011;52467;40.114;18.306;2023-02-28T16:01:29;40.35;;;6.15;;
42192;SDS011;52467;40.114;18.306;2023-02-28T16:04:06;41.15;;;5.40;;
42192;SDS011;52467;40.114;18.306;2023-02-28T16:06:39;37.75;;;7.03;;
42192;SDS011;52467;40.114;18.306;2023-02-28T16:09:14;36.78;;;5.10;;
42192;SDS011;52467;40.114;18.306;2023-02-28T16:11:47;47.45;;;6.55;;
42192;SDS011;52467;40.114;18.306;2023-02-28T16:14:17;41.38;;;5.40;;
42192;SDS011;52467;40.114;18.306;2023-02-28T16:16:48;42.17;;;5.60;;
42192;SDS011;52467;40.114;18.306;2023-02-28T16:19:17;43.30;;;6.93;;
42192;SDS011;52467;40.114;18.306;2023-02-28T16:21:45;44.63;;;6.35;;
42192;SDS011;52467;40.114;18.306;2023-02-28T16:24:13;45.75;;;6.60;;
42192;SDS011;52467;40.114;18.306;2023-02-28T16:26:41;36.47;;;5.90;;
42192;SDS011;52467;40.114;18.306;2023-02-28T16:29:18;34.53;;;7.20;;
42192;SDS011;52467;40.114;18.306;2023-02-28T16:31:51;45.55;;;6.78;;
42192;SDS011;52467;40.114;18.306;2023-02-28T16:34:22;46.72;;;9.40;;
42192;SDS011;52467;40.114;18.306;2023-02-28T16:36:50;36.33;;;6.78;;
42192;SDS011;52467;40.114;18.306;2023-02-28T16:39:17;42.53;;;7.22;;
42192;SDS011;52467;40.114;18.306;2023-02-28T16:41:47;42.13;;;6.55;;
42192;SDS011;52467;40.114;18.306;2023-02-28T16:46:55;49.20;;;6.53;;
42192;SDS011;52467;40.114;18.306;2023-02-28T16:49:26;35.35;;;5.80;;
42192;SDS011;52467;40.114;18.306;2023-02-28T16:51:53;40.60;;;6.57;;
42192;SDS011;52467;40.114;18.306;2023-02-28T16:54:20;42.20;;;7.38;;
42192;SDS011;52467;40.114;18.306;2023-02-28T16:56:51;35.47;;;7.80;;
42192;SDS011;52467;40.114;18.306;2023-02-28T16:59:19;39.67;;;7.73;;
42192;SDS011;52467;40.114;18.306;2023-02-28T17:01:50;41.20;;;7.53;;
42192;SDS011;52467;40.114;18.306;2023-02-28T17:04:21;43.80;;;7.63;;
42192;SDS011;52467;40.114;18.306;2023-02-28T17:06:48;43.20;;;8.25;;
42192;SDS011;52467;40.114;18.306;2023-02-28T17:09:19;42.30;;;7.85;;
42192;SDS011;52467;40.114;18.306;2023-02-28T17:11:51;42.83;;;8.77;;
42192;SDS011;52467;40.114;18.306;2023-02-28T17:14:19;45.03;;;8.63;;
42192;SDS011;52467;40.114;18.306;2023-02-28T17:16:47;43.30;;;7.88;;
42192;SDS011;52467;40.114;18.306;2023-02-28T17:19:15;35.50;;;7.63;;
42192;SDS011;52467;40.114;18.306;2023-02-28T17:21:43;46.77;;;9.00;;
42192;SDS011;52467;40.114;18.306;2023-02-28T17:24:11;41.83;;;8.35;;
42192;SDS011;52467;40.114;18.306;2023-02-28T17:26:42;40.38;;;8.25;;
42192;SDS011;52467;40.114;18.306;2023-02-28T17:29:19;38.17;;;8.07;;
42192;SDS011;52467;40.114;18.306;2023-02-28T17:31:47;36.42;;;7.47;;
42192;SDS011;52467;40.114;18.306;2023-02-28T17:34:15;32.88;;;7.30;;
42192;SDS011;52467;40.114;18.306;2023-02-28T17:36:45;39.08;;;7.32;;
42192;SDS011;52467;40.114;18.306;2023-02-28T17:39:16;38.90;;;7.55;;
42192;SDS011;52467;40.114;18.306;2023-02-28T17:41:54;33.25;;;7.50;;
42192;SDS011;52467;40.114;18.306;2023-02-28T17:44:22;39.40;;;8.40;;
42192;SDS011;52467;40.114;18.306;2023-02-28T17:46:50;35.13;;;8.07;;
42192;SDS011;52467;40.114;18.306;2023-02-28T17:49:19;37.40;;;9.00;;
42192;SDS011;52467;40.114;18.306;2023-02-28T17:51:50;33.50;;;10.48;;
42192;SDS011;52467;40.114;18.306;2023-02-28T17:54:17;36.33;;;9.07;;